Airfield :
LOGIN :

Register | Disclaimer

   EN    FR    IT 

 










Legend :    VFR   Marginal VFR   IFR   Intensive IFR   Very Intensive IFR
Visi :
Ceiling :
>= 8 km
>= 3000ft
5 to 8 km
1000 to 3000 ft
1500m to 5 km
500 to 1000 ft
800 to 1500m
200 to 500 ft
< 800m
< 200 ft
Symbols :   Thunderstorms  Fog  Heavy snow  Heavy precipitations  Wind > 20 kt
SIGMETs :     Misc.  Thunderstorms  Icing  Turbulence  Mountain Waves  Volcanic Ashes







- Airport Elevation : 256 ft
- IATA code : KUN


EYKA - Kaunas

CURRENT METAR :
  • 151250Z 25010KT 220V280 9999 SCT060CB OVC100 21/16 Q1011

EXPIRED METARs :
  • 151220Z 24011KT 220V280 9999 -SHRA SCT025CB BKN082 21/16 Q1011
  • 151150Z 27009KT 9999 FEW060CB BKN100 22/17 Q1011
  • 151120Z 26010KT 230V290 9999 VCSH SCT034CB BKN110 22/16 Q1011
  • 151050Z 25008KT 220V280 9999 FEW049CB SCT067 BKN100 21/16 Q1011
  • 151020Z 26013KT 9999 VCSH SCT015CB BKN032 21/15 Q1010

TAF TAF EYKA
Valid from the 15 at 12:00 until the 16 at 12:00 UTC


151100Z 1512/1612 26014KT 9000 BKN025
TEMPO 1512/1518 3000 TSRA SCT005 BKN015CB
BECMG 1522/1524 VRB04KT BKN006
TEMPO 1600/1604 3000 MIFG BR BKN003
BECMG 1609/1611 BKN025
No reported NOTAMs for that airfield.



MET'MAP, your aeronautical weather chart ! - Copyright ORBIFLY December 2007 - Disclaimer

ORBIFLY MET'MAP TEAM :

Programming & Development : Alexandra Zaïnal
Concept & Development : Baudouin d'Aumeries
Co-Development & Prog : Marc-Olivier Méhu
Technical & hardware support : Manuel Goepfert

Contact : metmap@orbifly.com




SOURCES & CREDITS :

   NOAA